sensor_id;sensor_type;location;lat;lon;timestamp;P1;durP1;ratioP1;P2;durP2;ratioP2
53652;SDS011;39553;52.954;5.932;2023-05-13T00:02:07;10.15;;;7.43;;
53652;SDS011;39553;52.954;5.932;2023-05-13T00:04:44;11.20;;;7.95;;
53652;SDS011;39553;52.954;5.932;2023-05-13T00:07:15;13.35;;;8.50;;
53652;SDS011;39553;52.954;5.932;2023-05-13T00:09:44;11.73;;;7.43;;
53652;SDS011;39553;52.954;5.932;2023-05-13T00:12:23;11.93;;;7.38;;
53652;SDS011;39553;52.954;5.932;2023-05-13T00:15:00;12.35;;;8.35;;
53652;SDS011;39553;52.954;5.932;2023-05-13T00:17:29;12.23;;;8.63;;
53652;SDS011;39553;52.954;5.932;2023-05-13T00:19:58;12.27;;;8.68;;
53652;SDS011;39553;52.954;5.932;2023-05-13T00:22:35;11.02;;;8.50;;
53652;SDS011;39553;52.954;5.932;2023-05-13T00:25:30;23.38;;;9.05;;
53652;SDS011;39553;52.954;5.932;2023-05-13T00:28:06;12.00;;;8.80;;
53652;SDS011;39553;52.954;5.932;2023-05-13T00:30:33;13.75;;;8.32;;
53652;SDS011;39553;52.954;5.932;2023-05-13T00:33:20;15.30;;;9.05;;
53652;SDS011;39553;52.954;5.932;2023-05-13T00:35:56;11.52;;;8.50;;
53652;SDS011;39553;52.954;5.932;2023-05-13T00:38:24;13.63;;;9.38;;
53652;SDS011;39553;52.954;5.932;2023-05-13T00:40:51;12.63;;;9.68;;
53652;SDS011;39553;52.954;5.932;2023-05-13T00:43:19;14.02;;;9.65;;
53652;SDS011;39553;52.954;5.932;2023-05-13T00:46:08;17.67;;;9.98;;
53652;SDS011;39553;52.954;5.932;2023-05-13T00:48:37;16.67;;;8.90;;
53652;SDS011;39553;52.954;5.932;2023-05-13T00:51:03;12.52;;;9.57;;
53652;SDS011;39553;52.954;5.932;2023-05-13T00:53:38;15.13;;;11.32;;
53652;SDS011;39553;52.954;5.932;2023-05-13T00:56:10;14.68;;;9.40;;
53652;SDS011;39553;52.954;5.932;2023-05-13T00:58:57;15.27;;;9.55;;
53652;SDS011;39553;52.954;5.932;2023-05-13T01:04:36;12.32;;;8.82;;
53652;SDS011;39553;52.954;5.932;2023-05-13T01:07:25;15.63;;;9.20;;
53652;SDS011;39553;52.954;5.932;2023-05-13T01:10:28;16.00;;;8.05;;
53652;SDS011;39553;52.954;5.932;2023-05-13T01:13:09;19.10;;;10.15;;
53652;SDS011;39553;52.954;5.932;2023-05-13T01:15:39;14.48;;;10.10;;
53652;SDS011;39553;52.954;5.932;2023-05-13T01:18:23;14.88;;;9.23;;
53652;SDS011;39553;52.954;5.932;2023-05-13T01:20:53;11.18;;;9.13;;
53652;SDS011;39553;52.954;5.932;2023-05-13T01:23:24;14.98;;;9.98;;
53652;SDS011;39553;52.954;5.932;2023-05-13T01:25:52;14.90;;;10.43;;
53652;SDS011;39553;52.954;5.932;2023-05-13T01:28:24;16.45;;;10.95;;
53652;SDS011;39553;52.954;5.932;2023-05-13T01:31:02;15.88;;;9.80;;
53652;SDS011;39553;52.954;5.932;2023-05-13T01:33:41;16.23;;;10.52;;
53652;SDS011;39553;52.954;5.932;2023-05-13T01:36:11;12.45;;;9.57;;
53652;SDS011;39553;52.954;5.932;2023-05-13T01:38:40;14.40;;;11.23;;
53652;SDS011;39553;52.954;5.932;2023-05-13T01:41:10;15.93;;;10.27;;
53652;SDS011;39553;52.954;5.932;2023-05-13T01:43:47;13.13;;;11.25;;
53652;SDS011;39553;52.954;5.932;2023-05-13T01:46:13;14.63;;;10.88;;
53652;SDS011;39553;52.954;5.932;2023-05-13T01:48:42;16.75;;;11.90;;
53652;SDS011;39553;52.954;5.932;2023-05-13T01:51:08;17.02;;;10.73;;
53652;SDS011;39553;52.954;5.932;2023-05-13T01:53:39;18.52;;;12.35;;
53652;SDS011;39553;52.954;5.932;2023-05-13T01:56:09;12.95;;;10.50;;
53652;SDS011;39553;52.954;5.932;2023-05-13T01:58:37;14.55;;;10.70;;
53652;SDS011;39553;52.954;5.932;2023-05-13T02:01:10;16.33;;;11.45;;
53652;SDS011;39553;52.954;5.932;2023-05-13T02:06:36;16.48;;;10.93;;
53652;SDS011;39553;52.954;5.932;2023-05-13T02:09:02;19.23;;;11.70;;
53652;SDS011;39553;52.954;5.932;2023-05-13T02:11:34;17.48;;;11.50;;
53652;SDS011;39553;52.954;5.932;2023-05-13T02:14:06;12.70;;;10.90;;
53652;SDS011;39553;52.954;5.932;2023-05-13T02:16:35;16.13;;;11.82;;
53652;SDS011;39553;52.954;5.932;2023-05-13T02:19:13;17.60;;;11.00;;
53652;SDS011;39553;52.954;5.932;2023-05-13T02:22:01;20.17;;;12.43;;
53652;SDS011;39553;52.954;5.932;2023-05-13T02:24:27;19.02;;;11.25;;
53652;SDS011;39553;52.954;5.932;2023-05-13T02:27:02;20.63;;;11.98;;
53652;SDS011;39553;52.954;5.932;2023-05-13T02:29:29;14.93;;;11.82;;
53652;SDS011;39553;52.954;5.932;2023-05-13T02:32:35;14.95;;;11.75;;
53652;SDS011;39553;52.954;5.932;2023-05-13T02:35:10;17.80;;;12.00;;
53652;SDS011;39553;52.954;5.932;2023-05-13T02:37:40;16.05;;;12.02;;
53652;SDS011;39553;52.954;5.932;2023-05-13T02:40:06;14.75;;;10.90;;
53652;SDS011;39553;52.954;5.932;2023-05-13T02:42:38;15.40;;;11.65;;
53652;SDS011;39553;52.954;5.932;2023-05-13T02:45:10;18.38;;;11.18;;
53652;SDS011;39553;52.954;5.932;2023-05-13T02:47:39;17.30;;;12.23;;
53652;SDS011;39553;52.954;5.932;2023-05-13T02:50:08;17.38;;;11.23;;
53652;SDS011;39553;52.954;5.932;2023-05-13T02:52:38;14.32;;;10.60;;
53652;SDS011;39553;52.954;5.932;2023-05-13T02:55:12;22.95;;;11.82;;
53652;SDS011;39553;52.954;5.932;2023-05-13T02:57:38;14.95;;;11.30;;
53652;SDS011;39553;52.954;5.932;2023-05-13T03:00:05;17.63;;;11.40;;
53652;SDS011;39553;52.954;5.932;2023-05-13T03:02:57;16.17;;;11.60;;
53652;SDS011;39553;52.954;5.932;2023-05-13T03:05:46;15.90;;;10.27;;
53652;SDS011;39553;52.954;5.932;2023-05-13T03:08:48;15.45;;;10.68;;
53652;SDS011;39553;52.954;5.932;2023-05-13T03:11:43;15.35;;;10.38;;
53652;SDS011;39553;52.954;5.932;2023-05-13T03:14:40;18.90;;;11.15;;
53652;SDS011;39553;52.954;5.932;2023-05-13T03:17:45;14.77;;;11.18;;
53652;SDS011;39553;52.954;5.932;2023-05-13T03:20:53;15.60;;;10.55;;
53652;SDS011;39553;52.954;5.932;2023-05-13T03:23:48;13.43;;;10.25;;
53652;SDS011;39553;52.954;5.932;2023-05-13T03:26:32;15.00;;;10.68;;
53652;SDS011;39553;52.954;5.932;2023-05-13T03:29:15;21.27;;;11.48;;
53652;SDS011;39553;52.954;5.932;2023-05-13T03:31:48;14.43;;;10.38;;
53652;SDS011;39553;52.954;5.932;2023-05-13T03:34:20;16.48;;;10.82;;
53652;SDS011;39553;52.954;5.932;2023-05-13T03:37:18;16.23;;;10.38;;
53652;SDS011;39553;52.954;5.932;2023-05-13T03:40:18;21.17;;;10.77;;
53652;SDS011;39553;52.954;5.932;2023-05-13T03:46:06;17.67;;;10.73;;
53652;SDS011;39553;52.954;5.932;2023-05-13T03:48:47;16.77;;;10.73;;
53652;SDS011;39553;52.954;5.932;2023-05-13T03:58:14;13.02;;;9.93;;
53652;SDS011;39553;52.954;5.932;2023-05-13T04:01:28;17.17;;;10.25;;
53652;SDS011;39553;52.954;5.932;2023-05-13T04:04:33;13.60;;;10.10;;
53652;SDS011;39553;52.954;5.932;2023-05-13T04:14:21;14.32;;;9.43;;
53652;SDS011;39553;52.954;5.932;2023-05-13T04:17:10;20.80;;;9.73;;
53652;SDS011;39553;52.954;5.932;2023-05-13T04:19:54;13.73;;;8.90;;
53652;SDS011;39553;52.954;5.932;2023-05-13T04:22:44;16.90;;;9.63;;
53652;SDS011;39553;52.954;5.932;2023-05-13T04:28:12;15.98;;;9.90;;
53652;SDS011;39553;52.954;5.932;2023-05-13T04:30:56;12.38;;;9.57;;
53652;SDS011;39553;52.954;5.932;2023-05-13T04:33:42;13.95;;;9.40;;
53652;SDS011;39553;52.954;5.932;2023-05-13T04:36:19;9.98;;;8.50;;
53652;SDS011;39553;52.954;5.932;2023-05-13T04:38:45;13.20;;;9.50;;
53652;SDS011;39553;52.954;5.932;2023-05-13T04:41:22;19.33;;;9.18;;
53652;SDS011;39553;52.954;5.932;2023-05-13T04:47:32;13.85;;;9.35;;
53652;SDS011;39553;52.954;5.932;2023-05-13T04:50:08;11.70;;;8.48;;
53652;SDS011;39553;52.954;5.932;2023-05-13T04:52:38;14.80;;;8.85;;
53652;SDS011;39553;52.954;5.932;2023-05-13T04:55:11;14.63;;;9.07;;
53652;SDS011;39553;52.954;5.932;2023-05-13T04:57:39;15.02;;;9.23;;
53652;SDS011;39553;52.954;5.932;2023-05-13T05:00:14;15.23;;;8.65;;
53652;SDS011;39553;52.954;5.932;2023-05-13T05:02:41;16.02;;;8.50;;
53652;SDS011;39553;52.954;5.932;2023-05-13T05:05:10;14.48;;;9.32;;
53652;SDS011;39553;52.954;5.932;2023-05-13T05:07:54;12.32;;;8.02;;
53652;SDS011;39553;52.954;5.932;2023-05-13T05:10:23;14.10;;;9.30;;
53652;SDS011;39553;52.954;5.932;2023-05-13T05:12:56;13.55;;;8.43;;
53652;SDS011;39553;52.954;5.932;2023-05-13T05:15:25;12.43;;;9.32;;
53652;SDS011;39553;52.954;5.932;2023-05-13T05:17:54;12.93;;;8.88;;
53652;SDS011;39553;52.954;5.932;2023-05-13T05:20:24;13.18;;;9.48;;
53652;SDS011;39553;52.954;5.932;2023-05-13T05:23:04;12.32;;;8.20;;
53652;SDS011;39553;52.954;5.932;2023-05-13T05:25:36;13.18;;;8.35;;
53652;SDS011;39553;52.954;5.932;2023-05-13T05:28:02;13.15;;;8.48;;
53652;SDS011;39553;52.954;5.932;2023-05-13T05:30:37;12.38;;;8.07;;
53652;SDS011;39553;52.954;5.932;2023-05-13T05:33:09;12.68;;;7.78;;
53652;SDS011;39553;52.954;5.932;2023-05-13T05:35:38;11.77;;;7.40;;
53652;SDS011;39553;52.954;5.932;2023-05-13T05:38:05;15.93;;;8.10;;
53652;SDS011;39553;52.954;5.932;2023-05-13T05:40:36;12.65;;;7.72;;
53652;SDS011;39553;52.954;5.932;2023-05-13T05:43:10;16.52;;;8.10;;
53652;SDS011;39553;52.954;5.932;2023-05-13T05:45:50;11.88;;;7.40;;
53652;SDS011;39553;52.954;5.932;2023-05-13T05:48:27;11.77;;;6.85;;
53652;SDS011;39553;52.954;5.932;2023-05-13T05:51:34;10.38;;;7.43;;
53652;SDS011;39553;52.954;5.932;2023-05-13T05:54:12;11.23;;;7.57;;
53652;SDS011;39553;52.954;5.932;2023-05-13T05:56:44;10.95;;;7.40;;
53652;SDS011;39553;52.954;5.932;2023-05-13T05:59:13;9.70;;;7.55;;
53652;SDS011;39553;52.954;5.932;2023-05-13T06:01:42;11.85;;;6.78;;
53652;SDS011;39553;52.954;5.932;2023-05-13T06:04:11;9.70;;;7.47;;
53652;SDS011;39553;52.954;5.932;2023-05-13T06:06:58;11.20;;;7.25;;
53652;SDS011;39553;52.954;5.932;2023-05-13T06:09:36;8.73;;;7.00;;
53652;SDS011;39553;52.954;5.932;2023-05-13T06:12:02;9.90;;;6.68;;
53652;SDS011;39553;52.954;5.932;2023-05-13T06:15:03;11.73;;;7.22;;
53652;SDS011;39553;52.954;5.932;2023-05-13T06:17:39;11.93;;;6.85;;
53652;SDS011;39553;52.954;5.932;2023-05-13T06:20:19;8.57;;;6.85;;
53652;SDS011;39553;52.954;5.932;2023-05-13T06:22:51;13.18;;;6.78;;
53652;SDS011;39553;52.954;5.932;2023-05-13T06:28:32;13.30;;;7.03;;
53652;SDS011;39553;52.954;5.932;2023-05-13T06:31:08;13.00;;;6.95;;
53652;SDS011;39553;52.954;5.932;2023-05-13T06:33:57;14.65;;;6.65;;
53652;SDS011;39553;52.954;5.932;2023-05-13T06:36:23;11.40;;;6.60;;
53652;SDS011;39553;52.954;5.932;2023-05-13T06:39:05;11.88;;;6.22;;
53652;SDS011;39553;52.954;5.932;2023-05-13T06:41:42;13.90;;;7.53;;
53652;SDS011;39553;52.954;5.932;2023-05-13T06:44:15;10.50;;;6.47;;
53652;SDS011;39553;52.954;5.932;2023-05-13T06:46:41;11.93;;;6.68;;
53652;SDS011;39553;52.954;5.932;2023-05-13T06:49:07;10.90;;;6.95;;
53652;SDS011;39553;52.954;5.932;2023-05-13T06:51:39;8.68;;;6.70;;
53652;SDS011;39553;52.954;5.932;2023-05-13T06:54:12;9.63;;;6.18;;
53652;SDS011;39553;52.954;5.932;2023-05-13T06:56:39;12.07;;;7.07;;
53652;SDS011;39553;52.954;5.932;2023-05-13T06:59:07;8.48;;;6.47;;
53652;SDS011;39553;52.954;5.932;2023-05-13T07:01:37;11.07;;;6.97;;
53652;SDS011;39553;52.954;5.932;2023-05-13T07:07:02;10.98;;;6.70;;
53652;SDS011;39553;52.954;5.932;2023-05-13T07:09:50;10.10;;;7.13;;
53652;SDS011;39553;52.954;5.932;2023-05-13T07:19:49;7.93;;;6.17;;
53652;SDS011;39553;52.954;5.932;2023-05-13T07:22:32;9.98;;;5.78;;
53652;SDS011;39553;52.954;5.932;2023-05-13T07:25:50;8.52;;;6.57;;
53652;SDS011;39553;52.954;5.932;2023-05-13T07:31:40;7.00;;;6.15;;
53652;SDS011;39553;52.954;5.932;2023-05-13T07:34:42;11.40;;;5.93;;
53652;SDS011;39553;52.954;5.932;2023-05-13T07:44:42;10.38;;;5.65;;
53652;SDS011;39553;52.954;5.932;2023-05-13T07:55:38;9.27;;;5.63;;
53652;SDS011;39553;52.954;5.932;2023-05-13T08:05:38;8.38;;;5.10;;
53652;SDS011;39553;52.954;5.932;2023-05-13T08:08:46;6.68;;;4.85;;
53652;SDS011;39553;52.954;5.932;2023-05-13T08:11:30;8.35;;;5.18;;
53652;SDS011;39553;52.954;5.932;2023-05-13T08:20:25;7.03;;;4.35;;
53652;SDS011;39553;52.954;5.932;2023-05-13T08:22:54;9.82;;;5.95;;
53652;SDS011;39553;52.954;5.932;2023-05-13T08:25:23;9.05;;;5.30;;
53652;SDS011;39553;52.954;5.932;2023-05-13T08:27:49;9.65;;;4.85;;
53652;SDS011;39553;52.954;5.932;2023-05-13T08:30:15;7.47;;;5.32;;
53652;SDS011;39553;52.954;5.932;2023-05-13T08:32:50;8.35;;;5.07;;
53652;SDS011;39553;52.954;5.932;2023-05-13T08:35:17;9.43;;;5.15;;
53652;SDS011;39553;52.954;5.932;2023-05-13T08:37:54;10.85;;;5.30;;
53652;SDS011;39553;52.954;5.932;2023-05-13T08:40:19;6.07;;;5.05;;
53652;SDS011;39553;52.954;5.932;2023-05-13T08:42:46;5.82;;;4.30;;
53652;SDS011;39553;52.954;5.932;2023-05-13T08:45:24;8.90;;;4.50;;
53652;SDS011;39553;52.954;5.932;2023-05-13T08:50:27;9.82;;;5.40;;
53652;SDS011;39553;52.954;5.932;2023-05-13T08:52:54;5.25;;;4.45;;
53652;SDS011;39553;52.954;5.932;2023-05-13T08:55:22;9.88;;;5.20;;
53652;SDS011;39553;52.954;5.932;2023-05-13T08:57:51;6.10;;;4.82;;
53652;SDS011;39553;52.954;5.932;2023-05-13T09:00:20;6.25;;;4.95;;
53652;SDS011;39553;52.954;5.932;2023-05-13T09:02:54;8.80;;;4.15;;
53652;SDS011;39553;52.954;5.932;2023-05-13T09:05:20;6.07;;;5.07;;
53652;SDS011;39553;52.954;5.932;2023-05-13T09:07:49;7.72;;;4.97;;
53652;SDS011;39553;52.954;5.932;2023-05-13T09:10:15;6.13;;;5.30;;
53652;SDS011;39553;52.954;5.932;2023-05-13T09:12:53;6.53;;;4.57;;
53652;SDS011;39553;52.954;5.932;2023-05-13T09:15:26;10.05;;;4.88;;
53652;SDS011;39553;52.954;5.932;2023-05-13T09:18:16;8.43;;;4.95;;
53652;SDS011;39553;52.954;5.932;2023-05-13T09:20:52;9.40;;;4.85;;
53652;SDS011;39553;52.954;5.932;2023-05-13T09:23:22;7.93;;;4.43;;
53652;SDS011;39553;52.954;5.932;2023-05-13T09:25:48;9.10;;;4.80;;
53652;SDS011;39553;52.954;5.932;2023-05-13T09:28:14;8.15;;;4.70;;
53652;SDS011;39553;52.954;5.932;2023-05-13T09:30:40;8.13;;;5.43;;
53652;SDS011;39553;52.954;5.932;2023-05-13T09:35:44;8.38;;;4.18;;
53652;SDS011;39553;52.954;5.932;2023-05-13T09:38:27;10.52;;;5.07;;
53652;SDS011;39553;52.954;5.932;2023-05-13T09:40:57;5.78;;;4.18;;
53652;SDS011;39553;52.954;5.932;2023-05-13T09:43:27;8.85;;;4.57;;
53652;SDS011;39553;52.954;5.932;2023-05-13T09:45:56;6.32;;;4.47;;
53652;SDS011;39553;52.954;5.932;2023-05-13T09:48:26;8.88;;;4.25;;
53652;SDS011;39553;52.954;5.932;2023-05-13T09:50:53;11.85;;;4.63;;
53652;SDS011;39553;52.954;5.932;2023-05-13T09:53:20;5.15;;;4.22;;
53652;SDS011;39553;52.954;5.932;2023-05-13T09:55:47;6.55;;;4.65;;
53652;SDS011;39553;52.954;5.932;2023-05-13T09:58:20;7.13;;;3.75;;
53652;SDS011;39553;52.954;5.932;2023-05-13T10:00:53;8.45;;;4.00;;
53652;SDS011;39553;52.954;5.932;2023-05-13T10:03:21;6.15;;;4.97;;
53652;SDS011;39553;52.954;5.932;2023-05-13T10:05:48;9.88;;;4.40;;
53652;SDS011;39553;52.954;5.932;2023-05-13T10:08:15;7.72;;;4.53;;
53652;SDS011;39553;52.954;5.932;2023-05-13T10:10:45;8.52;;;4.45;;
53652;SDS011;39553;52.954;5.932;2023-05-13T10:13:15;9.98;;;4.93;;
53652;SDS011;39553;52.954;5.932;2023-05-13T10:18:18;6.63;;;4.45;;
53652;SDS011;39553;52.954;5.932;2023-05-13T10:20:53;7.60;;;4.53;;
53652;SDS011;39553;52.954;5.932;2023-05-13T10:23:19;8.93;;;3.90;;
53652;SDS011;39553;52.954;5.932;2023-05-13T10:25:46;8.32;;;4.47;;
53652;SDS011;39553;52.954;5.932;2023-05-13T10:28:13;8.60;;;4.35;;
53652;SDS011;39553;52.954;5.932;2023-05-13T10:30:41;7.43;;;4.68;;
53652;SDS011;39553;52.954;5.932;2023-05-13T10:33:11;8.70;;;3.60;;
53652;SDS011;39553;52.954;5.932;2023-05-13T10:35:39;8.45;;;4.38;;
53652;SDS011;39553;52.954;5.932;2023-05-13T10:38:24;8.65;;;3.97;;
53652;SDS011;39553;52.954;5.932;2023-05-13T10:43:34;5.70;;;4.43;;
53652;SDS011;39553;52.954;5.932;2023-05-13T10:46:03;11.88;;;4.35;;
53652;SDS011;39553;52.954;5.932;2023-05-13T10:48:41;7.93;;;4.38;;
53652;SDS011;39553;52.954;5.932;2023-05-13T10:51:15;5.95;;;4.07;;
53652;SDS011;39553;52.954;5.932;2023-05-13T10:53:43;12.30;;;4.47;;
53652;SDS011;39553;52.954;5.932;2023-05-13T10:56:27;8.25;;;4.57;;
53652;SDS011;39553;52.954;5.932;2023-05-13T10:59:03;6.80;;;4.50;;
53652;SDS011;39553;52.954;5.932;2023-05-13T11:01:40;6.65;;;4.47;;
53652;SDS011;39553;52.954;5.932;2023-05-13T11:04:14;7.90;;;5.27;;
53652;SDS011;39553;52.954;5.932;2023-05-13T11:06:42;5.95;;;4.47;;
53652;SDS011;39553;52.954;5.932;2023-05-13T11:09:13;11.63;;;4.78;;
53652;SDS011;39553;52.954;5.932;2023-05-13T11:11:59;5.15;;;4.10;;
53652;SDS011;39553;52.954;5.932;2023-05-13T11:14:34;6.15;;;4.00;;
53652;SDS011;39553;52.954;5.932;2023-05-13T11:19:35;8.60;;;4.43;;
53652;SDS011;39553;52.954;5.932;2023-05-13T11:22:17;10.40;;;4.45;;
53652;SDS011;39553;52.954;5.932;2023-05-13T11:25:03;6.53;;;4.68;;
53652;SDS011;39553;52.954;5.932;2023-05-13T11:27:37;10.18;;;5.00;;
53652;SDS011;39553;52.954;5.932;2023-05-13T11:30:20;8.73;;;5.03;;
53652;SDS011;39553;52.954;5.932;2023-05-13T11:32:53;5.55;;;4.10;;
53652;SDS011;39553;52.954;5.932;2023-05-13T11:35:25;8.45;;;4.20;;
53652;SDS011;39553;52.954;5.932;2023-05-13T11:38:02;5.15;;;4.05;;
53652;SDS011;39553;52.954;5.932;2023-05-13T11:40:34;8.07;;;4.40;;
53652;SDS011;39553;52.954;5.932;2023-05-13T11:43:01;7.15;;;4.47;;
53652;SDS011;39553;52.954;5.932;2023-05-13T11:45:29;4.72;;;4.10;;
53652;SDS011;39553;52.954;5.932;2023-05-13T11:47:56;6.15;;;4.22;;
53652;SDS011;39553;52.954;5.932;2023-05-13T11:50:29;9.98;;;4.57;;
53652;SDS011;39553;52.954;5.932;2023-05-13T11:53:02;6.75;;;4.28;;
53652;SDS011;39553;52.954;5.932;2023-05-13T11:55:30;14.23;;;4.90;;
53652;SDS011;39553;52.954;5.932;2023-05-13T11:58:04;13.68;;;4.78;;
53652;SDS011;39553;52.954;5.932;2023-05-13T12:00:31;4.75;;;4.03;;
53652;SDS011;39553;52.954;5.932;2023-05-13T12:02:59;11.27;;;5.60;;
53652;SDS011;39553;52.954;5.932;2023-05-13T12:05:27;10.80;;;5.78;;
53652;SDS011;39553;52.954;5.932;2023-05-13T12:07:56;8.85;;;6.20;;
53652;SDS011;39553;52.954;5.932;2023-05-13T12:10:22;13.10;;;6.88;;
53652;SDS011;39553;52.954;5.932;2023-05-13T12:12:52;9.93;;;6.18;;
53652;SDS011;39553;52.954;5.932;2023-05-13T12:15:19;12.95;;;5.78;;
53652;SDS011;39553;52.954;5.932;2023-05-13T12:17:46;8.60;;;5.13;;
53652;SDS011;39553;52.954;5.932;2023-05-13T12:20:20;9.13;;;5.47;;
53652;SDS011;39553;52.954;5.932;2023-05-13T12:28:19;10.57;;;5.63;;
53652;SDS011;39553;52.954;5.932;2023-05-13T12:31:03;11.15;;;5.40;;
53652;SDS011;39553;52.954;5.932;2023-05-13T12:33:33;9.05;;;5.95;;
53652;SDS011;39553;52.954;5.932;2023-05-13T12:36:14;10.20;;;6.13;;
53652;SDS011;39553;52.954;5.932;2023-05-13T12:38:52;10.80;;;7.03;;
53652;SDS011;39553;52.954;5.932;2023-05-13T12:41:22;12.90;;;5.85;;
53652;SDS011;39553;52.954;5.932;2023-05-13T12:44:00;10.23;;;5.32;;
53652;SDS011;39553;52.954;5.932;2023-05-13T12:46:31;7.25;;;5.88;;
53652;SDS011;39553;52.954;5.932;2023-05-13T12:48:59;7.03;;;5.35;;
53652;SDS011;39553;52.954;5.932;2023-05-13T12:51:33;8.38;;;5.25;;
53652;SDS011;39553;52.954;5.932;2023-05-13T12:54:01;11.88;;;5.60;;
53652;SDS011;39553;52.954;5.932;2023-05-13T12:56:26;6.93;;;5.05;;
53652;SDS011;39553;52.954;5.932;2023-05-13T12:58:58;10.57;;;6.03;;
53652;SDS011;39553;52.954;5.932;2023-05-13T13:01:24;9.23;;;5.85;;
53652;SDS011;39553;52.954;5.932;2023-05-13T13:03:50;8.57;;;5.63;;
53652;SDS011;39553;52.954;5.932;2023-05-13T13:06:19;10.93;;;4.80;;
53652;SDS011;39553;52.954;5.932;2023-05-13T13:08:53;8.63;;;5.78;;
53652;SDS011;39553;52.954;5.932;2023-05-13T13:11:19;7.80;;;4.93;;
53652;SDS011;39553;52.954;5.932;2023-05-13T13:13:47;9.50;;;5.43;;
53652;SDS011;39553;52.954;5.932;2023-05-13T13:16:17;15.38;;;5.60;;
53652;SDS011;39553;52.954;5.932;2023-05-13T13:18:47;6.53;;;5.45;;
53652;SDS011;39553;52.954;5.932;2023-05-13T13:21:14;9.07;;;5.03;;
53652;SDS011;39553;52.954;5.932;2023-05-13T13:23:42;9.13;;;4.70;;
53652;SDS011;39553;52.954;5.932;2023-05-13T13:26:12;11.70;;;5.15;;
53652;SDS011;39553;52.954;5.932;2023-05-13T13:28:38;6.47;;;5.15;;
53652;SDS011;39553;52.954;5.932;2023-05-13T13:31:04;10.48;;;4.80;;
53652;SDS011;39553;52.954;5.932;2023-05-13T13:33:31;7.68;;;5.18;;
53652;SDS011;39553;52.954;5.932;2023-05-13T13:35:57;10.00;;;6.43;;
53652;SDS011;39553;52.954;5.932;2023-05-13T13:38:23;8.70;;;4.68;;
53652;SDS011;39553;52.954;5.932;2023-05-13T13:40:52;7.28;;;4.38;;
53652;SDS011;39553;52.954;5.932;2023-05-13T13:43:18;8.13;;;4.38;;
53652;SDS011;39553;52.954;5.932;2023-05-13T13:45:44;5.22;;;3.78;;
53652;SDS011;39553;52.954;5.932;2023-05-13T13:48:10;8.88;;;4.32;;
53652;SDS011;39553;52.954;5.932;2023-05-13T13:50:40;9.20;;;4.47;;
53652;SDS011;39553;52.954;5.932;2023-05-13T13:53:06;9.55;;;4.47;;
53652;SDS011;39553;52.954;5.932;2023-05-13T13:55:32;7.60;;;4.85;;
53652;SDS011;39553;52.954;5.932;2023-05-13T13:57:58;8.98;;;5.05;;
53652;SDS011;39553;52.954;5.932;2023-05-13T14:00:25;7.88;;;5.15;;
53652;SDS011;39553;52.954;5.932;2023-05-13T14:02:54;10.75;;;5.03;;
53652;SDS011;39553;52.954;5.932;2023-05-13T14:05:20;7.80;;;4.20;;
53652;SDS011;39553;52.954;5.932;2023-05-13T14:07:46;9.00;;;5.47;;
53652;SDS011;39553;52.954;5.932;2023-05-13T14:10:16;11.35;;;5.47;;
53652;SDS011;39553;52.954;5.932;2023-05-13T14:12:45;7.30;;;4.65;;
53652;SDS011;39553;52.954;5.932;2023-05-13T14:15:11;8.32;;;4.68;;
53652;SDS011;39553;52.954;5.932;2023-05-13T14:17:37;7.47;;;5.00;;
53652;SDS011;39553;52.954;5.932;2023-05-13T14:20:04;10.02;;;5.40;;
53652;SDS011;39553;52.954;5.932;2023-05-13T14:22:34;12.70;;;4.65;;
53652;SDS011;39553;52.954;5.932;2023-05-13T14:25:03;9.93;;;5.28;;
53652;SDS011;39553;52.954;5.932;2023-05-13T14:27:32;11.65;;;5.07;;
53652;SDS011;39553;52.954;5.932;2023-05-13T14:30:02;9.40;;;5.57;;
53652;SDS011;39553;52.954;5.932;2023-05-13T14:32:28;8.20;;;4.90;;
53652;SDS011;39553;52.954;5.932;2023-05-13T14:34:54;13.32;;;5.15;;
53652;SDS011;39553;52.954;5.932;2023-05-13T14:37:23;12.68;;;5.03;;
53652;SDS011;39553;52.954;5.932;2023-05-13T14:39:49;6.82;;;4.82;;
53652;SDS011;39553;52.954;5.932;2023-05-13T14:42:15;5.93;;;5.28;;
53652;SDS011;39553;52.954;5.932;2023-05-13T14:44:47;9.70;;;4.43;;
53652;SDS011;39553;52.954;5.932;2023-05-13T14:47:13;7.28;;;5.28;;
53652;SDS011;39553;52.954;5.932;2023-05-13T14:49:39;4.63;;;4.10;;
53652;SDS011;39553;52.954;5.932;2023-05-13T14:52:05;10.15;;;4.75;;
53652;SDS011;39553;52.954;5.932;2023-05-13T14:54:32;6.18;;;4.50;;
53652;SDS011;39553;52.954;5.932;2023-05-13T14:57:00;11.73;;;4.63;;
53652;SDS011;39553;52.954;5.932;2023-05-13T14:59:31;9.20;;;4.40;;
53652;SDS011;39553;52.954;5.932;2023-05-13T15:02:01;9.65;;;4.90;;
53652;SDS011;39553;52.954;5.932;2023-05-13T15:04:32;9.20;;;5.00;;
53652;SDS011;39553;52.954;5.932;2023-05-13T15:07:01;8.85;;;4.75;;
53652;SDS011;39553;52.954;5.932;2023-05-13T15:09:27;10.10;;;4.57;;
53652;SDS011;39553;52.954;5.932;2023-05-13T15:11:53;5.43;;;3.85;;
53652;SDS011;39553;52.954;5.932;2023-05-13T15:14:22;5.28;;;3.38;;
53652;SDS011;39553;52.954;5.932;2023-05-13T15:16:51;6.63;;;4.28;;
53652;SDS011;39553;52.954;5.932;2023-05-13T15:19:17;9.60;;;5.15;;
53652;SDS011;39553;52.954;5.932;2023-05-13T15:21:46;7.13;;;4.05;;
53652;SDS011;39553;52.954;5.932;2023-05-13T15:24:13;22.90;;;5.10;;
53652;SDS011;39553;52.954;5.932;2023-05-13T15:26:41;9.15;;;4.40;;
53652;SDS011;39553;52.954;5.932;2023-05-13T15:29:15;5.13;;;4.05;;
53652;SDS011;39553;52.954;5.932;2023-05-13T15:31:48;5.30;;;3.90;;
53652;SDS011;39553;52.954;5.932;2023-05-13T15:34:18;9.43;;;4.32;;
53652;SDS011;39553;52.954;5.932;2023-05-13T15:36:43;6.85;;;4.07;;
53652;SDS011;39553;52.954;5.932;2023-05-13T15:39:09;7.10;;;3.92;;
53652;SDS011;39553;52.954;5.932;2023-05-13T15:41:38;10.32;;;4.25;;
53652;SDS011;39553;52.954;5.932;2023-05-13T15:44:05;8.43;;;4.13;;
53652;SDS011;39553;52.954;5.932;2023-05-13T15:46:34;5.88;;;3.65;;
53652;SDS011;39553;52.954;5.932;2023-05-13T15:49:02;5.97;;;3.67;;
53652;SDS011;39553;52.954;5.932;2023-05-13T15:51:33;12.20;;;4.43;;
53652;SDS011;39553;52.954;5.932;2023-05-13T15:54:02;10.50;;;4.50;;
53652;SDS011;39553;52.954;5.932;2023-05-13T15:56:28;10.63;;;3.53;;
53652;SDS011;39553;52.954;5.932;2023-05-13T15:58:54;9.25;;;4.10;;
53652;SDS011;39553;52.954;5.932;2023-05-13T16:01:20;9.57;;;4.25;;
53652;SDS011;39553;52.954;5.932;2023-05-13T16:03:51;9.20;;;3.40;;
53652;SDS011;39553;52.954;5.932;2023-05-13T16:06:34;7.30;;;3.70;;
53652;SDS011;39553;52.954;5.932;2023-05-13T16:09:02;5.25;;;3.25;;
53652;SDS011;39553;52.954;5.932;2023-05-13T16:11:32;5.78;;;3.45;;
53652;SDS011;39553;52.954;5.932;2023-05-13T16:13:58;7.22;;;3.97;;
53652;SDS011;39553;52.954;5.932;2023-05-13T16:16:23;10.57;;;4.40;;
53652;SDS011;39553;52.954;5.932;2023-05-13T16:18:52;10.90;;;4.10;;
53652;SDS011;39553;52.954;5.932;2023-05-13T16:21:18;7.22;;;3.03;;
53652;SDS011;39553;52.954;5.932;2023-05-13T16:23:45;7.85;;;3.95;;
53652;SDS011;39553;52.954;5.932;2023-05-13T16:26:14;12.13;;;4.47;;
53652;SDS011;39553;52.954;5.932;2023-05-13T16:28:45;7.82;;;4.85;;
53652;SDS011;39553;52.954;5.932;2023-05-13T16:31:14;8.05;;;5.15;;
53652;SDS011;39553;52.954;5.932;2023-05-13T16:33:42;11.20;;;4.63;;
53652;SDS011;39553;52.954;5.932;2023-05-13T16:36:09;13.55;;;6.53;;
53652;SDS011;39553;52.954;5.932;2023-05-13T16:38:36;8.90;;;4.65;;
53652;SDS011;39553;52.954;5.932;2023-05-13T16:41:05;13.98;;;5.70;;
53652;SDS011;39553;52.954;5.932;2023-05-13T16:43:33;9.07;;;6.45;;
53652;SDS011;39553;52.954;5.932;2023-05-13T16:45:59;14.00;;;7.05;;
53652;SDS011;39553;52.954;5.932;2023-05-13T16:48:28;10.65;;;6.47;;